Time;durP1;ratioP1;P1;durP2;ratioP2;P2;SDS_P1;SDS_P2;PMS_P1;PMS_P2;Temp;Humidity;BMP_temperature;BMP_pressure;BME280_temperature;BME280_humidity;BME280_pressure;Samples;Min_cycle;Max_cycle;Signal;HPM_P1;HPM_P2
2022/03/02 00:00:10;;;;;;;28.77;21.53;;;9.40;99.90;;;;;;5007703;28;20714;-37
2022/03/02 00:02:38;;;;;;;28.87;20.53;;;9.40;99.90;;;;;;5017340;28;20201;-37
2022/03/02 00:05:08;;;;;;;32.33;20.23;;;9.40;99.90;;;;;;5030835;28;20259;-36
2022/03/02 00:07:35;;;;;;;28.30;20.43;;;9.40;99.90;;;;;;5012354;28;20231;-36
2022/03/02 00:10:03;;;;;;;30.33;20.60;;;9.30;99.90;;;;;;5010707;28;20217;-36
2022/03/02 00:12:33;;;;;;;27.63;20.93;;;9.30;99.90;;;;;;5025563;28;20223;-36
2022/03/02 00:15:03;;;;;;;27.87;20.20;;;9.30;99.90;;;;;;5030053;28;20232;-36
2022/03/02 00:17:33;;;;;;;26.77;19.57;;;9.40;99.90;;;;;;5023518;28;20218;-36
2022/03/02 00:20:00;;;;;;;28.07;20.60;;;9.30;99.90;;;;;;5011354;28;20328;-36
2022/03/02 00:22:27;;;;;;;28.30;20.63;;;9.30;99.90;;;;;;5022276;28;20290;-36
2022/03/02 00:24:56;;;;;;;28.77;19.97;;;9.30;99.90;;;;;;5028455;28;20259;-36
2022/03/02 00:27:24;;;;;;;32.40;20.60;;;9.30;99.90;;;;;;4999387;28;20726;-36
2022/03/02 00:29:54;;;;;;;30.53;20.33;;;9.30;99.90;;;;;;5009205;28;20229;-36
2022/03/02 00:32:26;;;;;;;28.57;20.63;;;9.30;99.90;;;;;;5016948;28;20291;-37
2022/03/02 00:34:56;;;;;;;28.90;20.40;;;9.30;99.90;;;;;;5012429;28;20678;-37
2022/03/02 00:37:23;;;;;;;26.37;19.50;;;9.20;99.90;;;;;;5028105;28;20736;-37
2022/03/02 00:39:55;;;;;;;29.43;20.97;;;9.20;99.90;;;;;;5028937;28;21028;-37
2022/03/02 00:42:24;;;;;;;33.07;21.70;;;9.20;99.90;;;;;;5026923;28;20193;-39
2022/03/02 00:44:54;;;;;;;30.00;20.33;;;9.20;99.90;;;;;;4994413;28;20248;-39
2022/03/02 00:47:21;;;;;;;30.67;20.93;;;9.20;99.90;;;;;;5020999;28;20298;-38
2022/03/02 00:49:51;;;;;;;29.13;21.20;;;9.20;99.90;;;;;;5009681;28;20668;-39
2022/03/02 00:52:19;;;;;;;32.00;21.03;;;9.20;99.90;;;;;;4994767;28;20260;-38
2022/03/02 00:54:48;;;;;;;30.80;20.47;;;9.10;99.90;;;;;;5028001;28;20233;-38
2022/03/02 00:57:18;;;;;;;31.03;20.73;;;9.10;99.90;;;;;;5023716;28;20292;-39
2022/03/02 00:59:48;;;;;;;30.53;19.93;;;9.10;99.90;;;;;;5022298;28;20232;-39
2022/03/02 01:02:15;;;;;;;30.63;21.63;;;9.10;99.90;;;;;;5020815;28;20576;-39
2022/03/02 01:04:47;;;;;;;28.60;20.30;;;9.10;99.90;;;;;;5030074;28;20211;-36
2022/03/02 01:07:14;;;;;;;29.53;20.97;;;9.10;99.90;;;;;;5023705;28;20225;-37
2022/03/02 01:09:42;;;;;;;29.83;20.27;;;9.10;99.90;;;;;;5020898;28;20212;-36
2022/03/02 01:12:09;;;;;;;29.23;20.13;;;9.10;99.90;;;;;;5026902;28;20248;-36
2022/03/02 01:14:39;;;;;;;31.00;20.73;;;9.10;99.90;;;;;;5029280;28;20200;-36
2022/03/02 01:17:11;;;;;;;28.37;19.97;;;9.10;99.90;;;;;;5024629;28;20591;-36
2022/03/02 01:19:39;;;;;;;28.43;20.00;;;9.10;99.90;;;;;;5019143;28;20303;-36
2022/03/02 01:22:07;;;;;;;27.47;19.43;;;9.10;99.90;;;;;;5008858;28;20750;-37
2022/03/02 01:24:34;;;;;;;30.93;19.93;;;9.10;99.90;;;;;;5023001;28;20241;-36
2022/03/02 01:27:02;;;;;;;27.70;20.03;;;9.10;99.90;;;;;;5008030;28;20213;-36
2022/03/02 01:29:30;;;;;;;27.93;20.03;;;9.10;99.90;;;;;;5008966;28;20202;-36
2022/03/02 01:31:58;;;;;;;29.67;19.47;;;9.10;99.90;;;;;;5006893;28;20229;-36
2022/03/02 01:34:25;;;;;;;31.73;21.00;;;9.10;99.90;;;;;;5021653;28;20308;-36
2022/03/02 01:36:53;;;;;;;28.10;19.10;;;9.10;99.90;;;;;;5021632;28;20221;-36
2022/03/02 01:39:25;;;;;;;32.37;20.77;;;9.10;99.90;;;;;;5009112;28;20208;-36
2022/03/02 01:41:55;;;;;;;27.63;19.50;;;9.10;99.90;;;;;;5008688;28;20237;-36
2022/03/02 01:44:23;;;;;;;28.83;19.27;;;9.00;99.90;;;;;;5027712;28;20244;-36
2022/03/02 01:46:51;;;;;;;28.80;19.53;;;9.00;99.90;;;;;;5027053;28;20197;-36
2022/03/02 01:49:24;;;;;;;26.43;19.37;;;9.10;99.90;;;;;;5008622;28;20210;-36
2022/03/02 01:51:53;;;;;;;30.97;20.87;;;9.00;99.90;;;;;;5007416;28;20641;-36
2022/03/02 01:54:21;;;;;;;29.90;20.60;;;9.00;99.90;;;;;;5025770;28;20249;-36
2022/03/02 01:56:49;;;;;;;30.53;20.20;;;9.00;99.90;;;;;;5010394;28;20201;-36
2022/03/02 01:59:16;;;;;;;28.70;19.67;;;9.10;99.90;;;;;;5021337;28;21027;-36
2022/03/02 02:01:44;;;;;;;27.27;20.40;;;9.00;99.90;;;;;;5020995;28;20235;-36
2022/03/02 02:04:17;;;;;;;27.83;19.97;;;9.10;99.90;;;;;;5022064;28;20197;-36
2022/03/02 02:06:44;;;;;;;28.97;20.20;;;9.10;99.90;;;;;;5007537;28;20240;-36
2022/03/02 02:09:12;;;;;;;29.97;20.00;;;9.00;99.90;;;;;;5022313;28;20260;-36
2022/03/02 02:11:42;;;;;;;28.00;20.13;;;9.00;99.90;;;;;;5025179;28;20209;-36
2022/03/02 02:14:09;;;;;;;32.07;19.93;;;9.00;99.90;;;;;;5021887;28;20676;-36
2022/03/02 02:16:36;;;;;;;27.90;20.50;;;9.00;99.90;;;;;;5022297;28;20228;-36
2022/03/02 02:19:06;;;;;;;29.03;21.03;;;9.00;99.90;;;;;;5026192;28;20203;-36
2022/03/02 02:21:34;;;;;;;30.00;20.23;;;9.00;99.90;;;;;;5005070;28;20750;-36
2022/03/02 02:24:01;;;;;;;31.40;20.70;;;9.00;99.90;;;;;;5026469;28;20205;-36
2022/03/02 02:26:31;;;;;;;29.70;19.97;;;9.00;99.90;;;;;;5021461;28;20229;-36
2022/03/02 02:28:58;;;;;;;30.00;19.87;;;9.00;99.90;;;;;;5026698;28;20271;-36
2022/03/02 02:31:28;;;;;;;26.57;20.27;;;9.00;99.90;;;;;;5017560;28;20212;-36
2022/03/02 02:33:55;;;;;;;28.33;19.83;;;8.90;99.90;;;;;;5020151;28;20226;-36
2022/03/02 02:36:27;;;;;;;28.27;19.57;;;8.90;99.90;;;;;;5011127;28;20204;-36
2022/03/02 02:38:56;;;;;;;30.37;19.87;;;8.90;99.90;;;;;;5010787;28;20206;-36
2022/03/02 02:41:25;;;;;;;30.20;20.03;;;8.90;99.90;;;;;;5007576;28;20284;-36
2022/03/02 02:43:58;;;;;;;32.10;20.20;;;8.90;99.90;;;;;;5019221;28;20222;-36
2022/03/02 02:46:26;;;;;;;29.37;20.37;;;8.80;99.90;;;;;;5007412;28;20192;-36
2022/03/02 02:48:56;;;;;;;31.03;20.07;;;8.80;99.90;;;;;;5008368;28;20193;-36
2022/03/02 02:51:26;;;;;;;28.83;20.03;;;8.80;99.90;;;;;;5006570;28;20714;-36
2022/03/02 02:53:53;;;;;;;27.07;19.27;;;8.80;99.90;;;;;;5011555;28;20247;-38
2022/03/02 02:56:23;;;;;;;29.57;19.90;;;8.70;99.90;;;;;;5019313;28;20233;-37
2022/03/02 02:58:50;;;;;;;29.37;20.17;;;8.70;99.90;;;;;;5007585;28;20213;-37
2022/03/02 03:01:17;;;;;;;26.07;18.97;;;8.70;99.90;;;;;;4991726;28;20276;-37
2022/03/02 03:03:46;;;;;;;27.93;20.33;;;8.70;99.90;;;;;;4997931;28;20214;-38
2022/03/02 03:06:16;;;;;;;30.90;19.40;;;8.60;99.90;;;;;;5015573;28;20718;-39
2022/03/02 03:08:43;;;;;;;29.40;20.37;;;8.60;99.90;;;;;;5007303;28;20305;-38
2022/03/02 03:11:10;;;;;;;30.40;20.37;;;8.60;99.90;;;;;;5007326;28;20208;-38
2022/03/02 03:13:38;;;;;;;26.70;19.57;;;8.60;99.90;;;;;;5015939;28;20764;-38
2022/03/02 03:16:07;;;;;;;29.57;20.30;;;8.60;99.90;;;;;;5020528;28;20213;-38
2022/03/02 03:18:42;;;;;;;29.57;20.03;;;8.60;99.90;;;;;;5008018;28;20222;-38
2022/03/02 03:21:09;;;;;;;30.80;20.77;;;8.60;99.90;;;;;;5011883;28;20687;-38
2022/03/02 03:23:39;;;;;;;28.03;19.40;;;8.50;99.90;;;;;;5024817;28;20240;-38
2022/03/02 03:26:11;;;;;;;28.10;19.83;;;8.60;99.90;;;;;;5006617;28;20294;-39
2022/03/02 03:28:43;;;;;;;27.70;20.33;;;8.50;99.90;;;;;;5025744;28;20223;-39
2022/03/02 03:31:12;;;;;;;28.20;19.33;;;8.50;99.90;;;;;;5026259;28;20752;-39
2022/03/02 03:33:40;;;;;;;26.37;19.13;;;8.50;99.90;;;;;;5023351;28;20204;-37
2022/03/02 03:36:07;;;;;;;26.27;19.80;;;8.50;99.90;;;;;;5013219;28;20304;-37
2022/03/02 03:38:35;;;;;;;28.77;19.50;;;8.50;99.90;;;;;;4989017;28;20617;-36
2022/03/02 03:41:02;;;;;;;28.63;18.63;;;8.50;99.90;;;;;;5006526;28;20785;-37
2022/03/02 03:43:33;;;;;;;29.60;19.60;;;8.50;99.90;;;;;;5014390;28;20201;-36
2022/03/02 03:46:00;;;;;;;33.83;21.10;;;8.40;99.90;;;;;;5022446;28;20221;-36
2022/03/02 03:48:32;;;;;;;27.27;19.60;;;8.40;99.90;;;;;;5019108;28;20212;-37
2022/03/02 03:50:59;;;;;;;29.63;19.70;;;8.40;99.90;;;;;;4989388;28;20209;-36
2022/03/02 03:53:29;;;;;;;27.70;19.20;;;8.40;99.90;;;;;;5007752;28;20236;-37
2022/03/02 03:55:56;;;;;;;28.53;18.73;;;8.40;99.90;;;;;;5022110;28;20209;-36
2022/03/02 03:58:26;;;;;;;29.23;19.47;;;8.30;99.90;;;;;;5006897;28;20285;-36
2022/03/02 04:00:53;;;;;;;29.07;19.50;;;8.30;99.90;;;;;;5013235;28;20238;-37
2022/03/02 04:03:21;;;;;;;28.10;19.93;;;8.30;99.90;;;;;;5026634;28;20222;-37
2022/03/02 04:05:48;;;;;;;29.33;19.60;;;8.30;99.90;;;;;;5006282;28;20316;-37
2022/03/02 04:08:18;;;;;;;29.43;20.30;;;8.30;99.90;;;;;;5021201;28;20216;-37
2022/03/02 04:10:45;;;;;;;27.90;19.27;;;8.30;99.90;;;;;;4989830;28;20225;-37
2022/03/02 04:13:13;;;;;;;28.77;19.10;;;8.20;99.90;;;;;;5006689;28;20229;-37
2022/03/02 04:15:40;;;;;;;32.53;20.33;;;8.20;99.90;;;;;;5020395;28;20300;-37
2022/03/02 04:18:08;;;;;;;26.27;18.83;;;8.20;99.90;;;;;;5012751;28;20292;-37
2022/03/02 04:20:40;;;;;;;29.00;18.80;;;8.20;99.90;;;;;;5005674;28;20341;-37
2022/03/02 04:23:08;;;;;;;26.33;19.27;;;8.20;99.90;;;;;;4998522;28;20550;-37
2022/03/02 04:25:38;;;;;;;28.63;18.60;;;8.10;99.90;;;;;;5023467;28;20617;-37
2022/03/02 04:28:10;;;;;;;28.47;19.53;;;8.10;99.90;;;;;;5006559;28;20210;-36
2022/03/02 04:30:38;;;;;;;27.13;19.23;;;8.10;99.90;;;;;;5005794;28;20243;-37
2022/03/02 04:33:07;;;;;;;27.77;19.00;;;8.10;99.90;;;;;;5024623;28;20209;-37
2022/03/02 04:35:35;;;;;;;32.13;19.83;;;8.00;99.90;;;;;;5024893;28;20193;-37
2022/03/02 04:38:03;;;;;;;27.60;19.40;;;8.00;99.90;;;;;;5021636;28;20670;-37
2022/03/02 04:40:31;;;;;;;28.80;19.23;;;8.00;99.90;;;;;;5029019;28;20613;-37
2022/03/02 04:42:59;;;;;;;30.40;20.60;;;8.00;99.90;;;;;;5017891;28;20634;-37
2022/03/02 04:45:29;;;;;;;28.10;18.93;;;7.90;99.90;;;;;;5027530;28;20227;-37
2022/03/02 04:48:03;;;;;;;28.57;20.17;;;7.90;99.90;;;;;;5011412;28;20208;-38
2022/03/02 04:50:32;;;;;;;25.80;18.50;;;7.90;99.90;;;;;;5028245;28;20264;-37
2022/03/02 04:53:00;;;;;;;31.67;20.17;;;7.80;99.90;;;;;;5029089;28;20344;-37
2022/03/02 04:55:30;;;;;;;28.67;18.63;;;7.80;99.90;;;;;;5016000;28;20209;-37
2022/03/02 04:58:03;;;;;;;29.13;19.40;;;7.80;99.90;;;;;;5029351;28;20197;-37
2022/03/02 05:00:36;;;;;;;30.17;19.83;;;7.80;99.90;;;;;;4998052;28;20600;-37
2022/03/02 05:03:06;;;;;;;28.97;19.00;;;7.80;99.90;;;;;;5025897;28;20726;-36
2022/03/02 05:05:36;;;;;;;28.80;18.67;;;7.70;99.90;;;;;;5013165;28;20741;-36
2022/03/02 05:08:06;;;;;;;27.00;18.77;;;7.70;99.90;;;;;;5014003;28;20198;-36
2022/03/02 05:10:33;;;;;;;26.90;18.23;;;7.70;99.90;;;;;;5009230;28;20205;-36
2022/03/02 05:13:03;;;;;;;29.77;18.93;;;7.70;99.90;;;;;;5009367;28;20204;-36
2022/03/02 05:15:31;;;;;;;28.37;19.33;;;7.60;99.90;;;;;;5009634;28;20225;-36
2022/03/02 05:17:59;;;;;;;29.07;18.57;;;7.60;99.90;;;;;;5020655;28;20209;-36
2022/03/02 05:20:29;;;;;;;26.30;18.50;;;7.60;99.90;;;;;;5029044;28;20201;-36
2022/03/02 05:23:01;;;;;;;26.93;18.37;;;7.50;99.90;;;;;;5012787;28;20225;-37
2022/03/02 05:25:31;;;;;;;27.93;18.87;;;7.50;99.90;;;;;;5009316;28;20265;-36
2022/03/02 05:28:03;;;;;;;31.20;19.23;;;7.50;99.90;;;;;;5010604;28;20687;-37
2022/03/02 05:30:31;;;;;;;31.73;20.10;;;7.50;99.90;;;;;;5008842;28;20213;-36
2022/03/02 05:33:00;;;;;;;28.43;18.33;;;7.40;99.90;;;;;;5009243;28;20216;-36
2022/03/02 05:35:30;;;;;;;29.83;19.03;;;7.40;99.90;;;;;;5011769;28;20205;-36
2022/03/02 05:38:00;;;;;;;29.10;18.27;;;7.40;99.90;;;;;;5019262;28;20201;-36
2022/03/02 05:40:30;;;;;;;29.23;19.10;;;7.40;99.90;;;;;;5024265;28;20233;-36
2022/03/02 05:42:59;;;;;;;26.37;18.30;;;7.30;99.90;;;;;;4991305;28;20221;-36
2022/03/02 05:45:28;;;;;;;26.50;18.83;;;7.30;99.90;;;;;;5008242;28;20194;-36
2022/03/02 05:47:56;;;;;;;27.43;18.00;;;7.30;99.90;;;;;;5016918;28;20308;-36
2022/03/02 05:50:23;;;;;;;27.07;17.50;;;7.30;99.90;;;;;;5026607;28;20205;-37
2022/03/02 05:52:55;;;;;;;29.37;18.60;;;7.30;99.90;;;;;;5008021;28;20257;-36
2022/03/02 05:55:22;;;;;;;25.97;17.63;;;7.30;99.90;;;;;;5012289;28;20205;-37
2022/03/02 05:57:49;;;;;;;26.77;18.53;;;7.30;99.90;;;;;;5015877;28;20242;-36
2022/03/02 06:00:17;;;;;;;29.03;19.13;;;7.30;99.90;;;;;;5020777;28;20629;-37
2022/03/02 06:02:44;;;;;;;28.00;18.30;;;7.30;99.90;;;;;;5017504;28;20221;-36
2022/03/02 06:05:14;;;;;;;27.37;18.27;;;7.30;99.90;;;;;;5028193;28;20220;-36
2022/03/02 06:07:41;;;;;;;26.63;18.63;;;7.30;99.90;;;;;;4997456;28;20236;-36
2022/03/02 06:10:13;;;;;;;29.17;19.03;;;7.20;99.90;;;;;;5021608;28;20240;-36
2022/03/02 06:12:43;;;;;;;26.93;18.67;;;7.20;99.90;;;;;;5026297;28;20307;-36
2022/03/02 06:15:14;;;;;;;29.83;18.37;;;7.20;99.90;;;;;;5015363;28;20292;-36
2022/03/02 06:17:42;;;;;;;31.90;17.90;;;7.20;99.90;;;;;;5012803;28;20208;-36
2022/03/02 06:20:10;;;;;;;29.20;18.07;;;7.20;99.90;;;;;;5013834;28;20766;-36
2022/03/02 06:22:40;;;;;;;25.73;17.70;;;7.20;99.90;;;;;;5015294;28;20236;-36
2022/03/02 06:25:08;;;;;;;27.63;17.93;;;7.20;99.90;;;;;;5016542;28;20214;-37
2022/03/02 06:27:38;;;;;;;29.90;18.27;;;7.20;99.90;;;;;;5024656;28;20630;-36
2022/03/02 06:30:08;;;;;;;27.83;18.40;;;7.10;99.90;;;;;;5008294;28;20209;-36
2022/03/02 06:32:36;;;;;;;29.47;18.50;;;7.10;99.90;;;;;;4993327;28;20213;-36
2022/03/02 06:35:03;;;;;;;29.50;18.30;;;7.10;99.90;;;;;;5012999;28;20211;-37
2022/03/02 06:37:34;;;;;;;31.70;19.03;;;7.10;99.90;;;;;;5026322;28;20299;-37
2022/03/02 06:40:03;;;;;;;29.37;17.60;;;7.10;99.90;;;;;;5019579;28;20243;-37
2022/03/02 06:42:45;;;;;;;29.60;19.00;;;7.10;99.90;;;;;;5020838;28;20229;-37
2022/03/02 06:45:24;;;;;;;36.03;18.77;;;7.10;99.90;;;;;;5007284;28;20636;-36
2022/03/02 06:48:02;;;;;;;32.40;18.83;;;7.10;99.90;;;;;;5024292;28;20216;-36
2022/03/02 06:50:34;;;;;;;30.40;19.30;;;7.10;99.90;;;;;;5021209;28;20201;-37
2022/03/02 06:53:05;;;;;;;29.83;18.07;;;7.10;99.90;;;;;;5026623;28;20261;-37
2022/03/02 06:55:34;;;;;;;32.67;18.47;;;7.10;99.90;;;;;;5009368;28;20224;-36
2022/03/02 06:58:07;;;;;;;28.73;18.27;;;7.10;99.90;;;;;;5027993;28;20304;-37
2022/03/02 07:00:39;;;;;;;29.97;19.07;;;7.10;99.90;;;;;;5018534;28;20615;-37
2022/03/02 07:03:18;;;;;;;34.17;19.10;;;7.10;99.90;;;;;;5009484;28;20331;-37
2022/03/02 07:05:53;;;;;;;28.17;17.73;;;7.10;99.90;;;;;;5008830;28;20406;-37
2022/03/02 07:08:22;;;;;;;34.30;18.27;;;7.20;99.90;;;;;;5008183;28;20296;-37
2022/03/02 07:10:51;;;;;;;32.73;18.40;;;7.20;99.90;;;;;;5009570;28;20248;-38
2022/03/02 07:13:18;;;;;;;31.57;18.77;;;7.20;99.90;;;;;;5007160;28;20217;-38
2022/03/02 07:15:46;;;;;;;33.03;19.43;;;7.20;99.90;;;;;;5010301;28;20209;-37
2022/03/02 07:18:15;;;;;;;28.47;18.00;;;7.20;99.90;;;;;;5019242;28;20205;-40
2022/03/02 07:20:46;;;;;;;31.90;18.23;;;7.20;99.90;;;;;;4994086;28;20568;-36
2022/03/02 07:23:15;;;;;;;31.60;18.90;;;7.20;99.90;;;;;;4998663;28;20229;-37
2022/03/02 07:25:44;;;;;;;32.77;19.20;;;7.30;99.90;;;;;;5011114;28;20212;-39
2022/03/02 07:28:16;;;;;;;33.10;18.50;;;7.30;99.90;;;;;;5004704;28;20205;-38
2022/03/02 07:30:45;;;;;;;32.80;18.70;;;7.30;99.90;;;;;;5018815;28;20213;-36
2022/03/02 07:33:15;;;;;;;31.60;18.27;;;7.30;99.90;;;;;;5020419;28;20233;-38
2022/03/02 07:35:54;;;;;;;27.07;18.00;;;7.30;99.90;;;;;;5000949;28;20205;-38
2022/03/02 07:38:21;;;;;;;30.40;18.70;;;7.40;99.90;;;;;;5018291;28;20263;-37
2022/03/02 07:40:52;;;;;;;34.83;19.97;;;7.40;99.90;;;;;;5013426;28;20201;-38
2022/03/02 07:43:23;;;;;;;34.43;19.17;;;7.40;99.90;;;;;;5014553;28;20282;-39
2022/03/02 07:45:52;;;;;;;35.93;18.43;;;7.40;99.90;;;;;;4997675;28;20300;-38
2022/03/02 07:48:20;;;;;;;32.53;17.87;;;7.40;99.90;;;;;;5024323;28;20251;-38
2022/03/02 07:50:48;;;;;;;32.57;19.13;;;7.50;99.90;;;;;;5019417;28;20193;-39
2022/03/02 07:53:18;;;;;;;27.27;17.50;;;7.50;99.90;;;;;;5009669;28;20324;-39
2022/03/02 07:55:54;;;;;;;31.80;18.20;;;7.50;99.90;;;;;;5016561;28;20231;-37
2022/03/02 07:58:25;;;;;;;31.90;17.43;;;7.50;99.90;;;;;;5005064;28;20568;-37
2022/03/02 08:00:54;;;;;;;30.63;17.43;;;7.60;99.90;;;;;;5016464;28;20207;-38
2022/03/02 08:03:25;;;;;;;27.93;18.03;;;7.60;99.90;;;;;;5015538;28;20352;-37
2022/03/02 08:05:58;;;;;;;32.17;18.93;;;7.60;99.90;;;;;;5010541;28;20694;-38
2022/03/02 08:08:26;;;;;;;32.73;18.43;;;7.60;99.90;;;;;;5001568;28;20189;-39
2022/03/02 08:10:53;;;;;;;29.83;18.53;;;7.70;99.90;;;;;;5011887;28;20625;-38
2022/03/02 08:13:22;;;;;;;30.17;18.67;;;7.70;99.90;;;;;;5008725;28;20206;-38
2022/03/02 08:15:50;;;;;;;28.17;18.00;;;7.70;99.90;;;;;;5010110;28;20621;-38
2022/03/02 08:18:18;;;;;;;27.37;17.53;;;7.80;99.90;;;;;;5025640;28;20197;-37
2022/03/02 08:20:59;;;;;;;27.10;17.77;;;7.80;99.90;;;;;;5019551;28;20209;-38
2022/03/02 08:23:38;;;;;;;28.60;17.43;;;7.80;99.90;;;;;;4997256;28;20228;-39
2022/03/02 08:26:11;;;;;;;24.47;16.57;;;7.90;99.90;;;;;;5012654;28;20197;-36
2022/03/02 08:28:45;;;;;;;23.87;16.50;;;7.90;99.90;;;;;;5008211;28;20288;-38
2022/03/02 08:31:14;;;;;;;29.30;16.40;;;8.00;99.90;;;;;;5024479;28;20208;-38
2022/03/02 08:33:42;;;;;;;25.73;16.43;;;8.00;99.90;;;;;;5001647;28;20304;-38
2022/03/02 08:36:10;;;;;;;25.43;15.73;;;8.10;99.90;;;;;;5022625;28;20209;-40
2022/03/02 08:38:42;;;;;;;23.83;16.17;;;8.10;99.90;;;;;;4991454;28;20283;-38
2022/03/02 08:41:12;;;;;;;26.50;16.43;;;8.10;99.90;;;;;;5017099;28;20223;-37
2022/03/02 08:43:39;;;;;;;25.77;16.47;;;8.20;99.90;;;;;;5029634;28;20789;-37
2022/03/02 08:46:07;;;;;;;26.00;16.20;;;8.30;99.90;;;;;;4994384;28;20583;-37
2022/03/02 08:48:36;;;;;;;29.73;16.77;;;8.30;99.90;;;;;;5020553;28;20228;-37
2022/03/02 08:51:04;;;;;;;24.17;15.53;;;8.40;99.90;;;;;;5009450;28;20304;-37
2022/03/02 08:53:36;;;;;;;27.27;15.77;;;8.50;99.90;;;;;;4992904;28;20233;-37
2022/03/02 08:56:06;;;;;;;27.37;15.63;;;8.50;99.90;;;;;;5024849;28;20507;-37
2022/03/02 08:58:37;;;;;;;24.17;15.00;;;8.60;99.90;;;;;;5015397;28;20231;-37
2022/03/02 09:01:09;;;;;;;35.20;17.37;;;8.70;99.90;;;;;;5009895;28;20229;-37
2022/03/02 09:03:46;;;;;;;29.87;16.47;;;8.70;99.90;;;;;;5027067;28;20918;-37
2022/03/02 09:06:18;;;;;;;33.40;15.90;;;8.80;99.90;;;;;;5016179;28;20192;-37
2022/03/02 09:08:45;;;;;;;27.53;16.10;;;8.80;99.90;;;;;;5014470;28;20201;-38
2022/03/02 09:11:17;;;;;;;41.37;17.47;;;8.90;99.90;;;;;;5010082;28;20669;-37
2022/03/02 09:13:49;;;;;;;33.97;18.50;;;8.90;99.90;;;;;;5010219;28;20201;-37
2022/03/02 09:16:21;;;;;;;29.37;16.70;;;9.00;99.90;;;;;;5021905;28;20290;-38
2022/03/02 09:18:51;;;;;;;25.33;15.47;;;9.00;99.90;;;;;;4999176;28;20695;-38
2022/03/02 09:21:21;;;;;;;27.53;16.73;;;9.10;99.90;;;;;;4993711;28;20212;-38
2022/03/02 09:23:56;;;;;;;25.53;17.00;;;9.10;99.90;;;;;;4997102;28;20222;-38
2022/03/02 09:26:26;;;;;;;26.83;16.50;;;9.20;99.90;;;;;;5017199;28;20633;-38
2022/03/02 09:28:53;;;;;;;25.23;16.80;;;9.20;99.90;;;;;;5012703;28;20292;-38
2022/03/02 09:31:26;;;;;;;32.17;17.97;;;9.20;99.90;;;;;;5023885;28;20201;-38
2022/03/02 09:34:00;;;;;;;26.27;16.07;;;9.30;99.90;;;;;;4992971;28;20216;-37
2022/03/02 09:36:29;;;;;;;25.17;16.57;;;9.30;99.90;;;;;;5013266;28;20213;-38
2022/03/02 09:38:57;;;;;;;24.80;15.93;;;9.30;99.90;;;;;;5023489;28;20295;-38
2022/03/02 09:41:36;;;;;;;22.83;16.43;;;9.30;99.90;;;;;;5000324;28;20629;-37
2022/03/02 09:44:05;;;;;;;25.63;16.53;;;9.40;99.90;;;;;;5009068;28;20224;-38
2022/03/02 09:46:36;;;;;;;24.60;15.77;;;9.40;99.90;;;;;;5000511;28;20546;-38
2022/03/02 09:49:11;;;;;;;26.27;15.90;;;9.40;99.90;;;;;;5005999;28;20208;-38
2022/03/02 09:51:41;;;;;;;24.00;16.40;;;9.50;99.90;;;;;;5007618;28;20235;-38
2022/03/02 09:54:14;;;;;;;28.73;16.10;;;9.60;99.90;;;;;;4992263;28;20214;-38
2022/03/02 09:56:41;;;;;;;24.67;15.50;;;9.60;99.90;;;;;;5016812;28;20613;-37
2022/03/02 09:59:09;;;;;;;29.53;16.27;;;9.60;99.90;;;;;;5026640;28;20223;-38
2022/03/02 10:01:41;;;;;;;24.30;15.27;;;9.70;99.90;;;;;;5017675;28;20517;-38
2022/03/02 10:04:21;;;;;;;23.47;15.77;;;9.70;99.90;;;;;;4995345;28;20227;-38
2022/03/02 10:06:54;;;;;;;32.40;17.73;;;9.70;99.90;;;;;;5010907;28;20229;-38
2022/03/02 10:09:22;;;;;;;24.73;15.27;;;9.80;99.90;;;;;;5013473;28;20683;-38
2022/03/02 10:11:50;;;;;;;32.13;16.60;;;9.80;99.90;;;;;;5027210;28;20299;-38
2022/03/02 10:14:20;;;;;;;26.43;15.77;;;9.80;99.90;;;;;;5023878;28;20658;-38
2022/03/02 10:17:01;;;;;;;25.03;15.07;;;9.90;99.90;;;;;;4991364;28;20215;-38
2022/03/02 10:19:57;;;;;;;24.70;14.27;;;9.90;99.90;;;;;;5013408;28;20335;-38
2022/03/02 10:22:57;;;;;;;30.80;15.83;;;10.00;99.90;;;;;;5016518;28;20328;-37
2022/03/02 10:25:55;;;;;;;42.43;16.80;;;10.00;99.90;;;;;;5027871;28;20212;-38
2022/03/02 10:28:49;;;;;;;42.93;16.67;;;10.10;99.90;;;;;;5030082;28;20220;-38
2022/03/02 10:31:47;;;;;;;35.80;16.43;;;10.20;99.90;;;;;;5036099;28;20234;-37
2022/03/02 10:34:34;;;;;;;27.60;14.43;;;10.20;99.90;;;;;;5043287;28;20219;-37
2022/03/02 10:37:08;;;;;;;20.57;13.43;;;10.30;99.90;;;;;;5017747;28;20241;-38
2022/03/02 10:39:51;;;;;;;19.63;13.20;;;10.30;99.90;;;;;;5022334;28;20204;-37
2022/03/02 10:42:27;;;;;;;19.03;13.23;;;10.40;99.90;;;;;;5011013;28;20642;-38
2022/03/02 10:45:10;;;;;;;17.47;12.53;;;10.40;99.90;;;;;;5020118;28;20216;-38
2022/03/02 10:48:03;;;;;;;17.77;12.60;;;10.40;99.90;;;;;;5000977;28;20563;-38
2022/03/02 10:50:35;;;;;;;19.57;13.70;;;10.50;99.90;;;;;;5016306;28;20212;-38
2022/03/02 10:53:11;;;;;;;19.00;13.20;;;10.50;99.90;;;;;;5016483;28;20609;-37
2022/03/02 10:55:45;;;;;;;18.90;12.43;;;10.60;99.90;;;;;;5004941;28;20327;-38
2022/03/02 10:58:16;;;;;;;20.07;13.20;;;10.60;99.90;;;;;;5016234;28;20200;-37
2022/03/02 11:00:47;;;;;;;20.33;12.60;;;10.60;99.90;;;;;;5020992;28;20502;-37
2022/03/02 11:03:15;;;;;;;19.03;12.77;;;10.70;99.90;;;;;;5010409;28;20695;-37
2022/03/02 11:05:43;;;;;;;23.17;13.53;;;10.70;99.90;;;;;;5017347;28;20256;-37
2022/03/02 11:08:18;;;;;;;17.13;12.40;;;10.80;99.90;;;;;;4990920;28;20229;-37
2022/03/02 11:10:49;;;;;;;18.80;13.40;;;10.80;99.90;;;;;;5015721;28;20209;-37
2022/03/02 11:13:24;;;;;;;20.23;13.20;;;10.80;99.90;;;;;;5022389;28;20227;-36
2022/03/02 11:15:55;;;;;;;21.17;13.50;;;10.90;99.90;;;;;;5006933;28;20200;-37
2022/03/02 11:18:42;;;;;;;17.37;12.57;;;10.90;99.90;;;;;;4994220;28;20211;-37
2022/03/02 11:21:23;;;;;;;18.23;11.93;;;11.00;99.90;;;;;;5013036;28;20889;-37
2022/03/02 11:24:01;;;;;;;22.33;13.10;;;11.00;99.90;;;;;;5004820;28;20252;-37
2022/03/02 11:26:31;;;;;;;18.43;12.67;;;11.00;99.90;;;;;;5010762;28;20202;-36
2022/03/02 11:29:06;;;;;;;17.43;12.90;;;11.10;99.90;;;;;;4993894;28;20202;-36
2022/03/02 11:31:42;;;;;;;18.77;12.73;;;11.10;99.90;;;;;;5012794;28;20250;-36
2022/03/02 11:34:22;;;;;;;15.73;11.63;;;11.10;99.90;;;;;;5012134;28;20207;-37
2022/03/02 11:36:55;;;;;;;19.23;12.87;;;11.20;99.90;;;;;;5013746;28;20212;-37
2022/03/02 11:39:24;;;;;;;17.50;12.00;;;11.20;99.90;;;;;;5009110;28;20249;-37
2022/03/02 11:42:00;;;;;;;15.97;11.77;;;11.20;99.90;;;;;;5014495;28;20200;-36
2022/03/02 11:44:32;;;;;;;19.27;11.20;;;11.20;99.90;;;;;;4996187;28;20228;-39
2022/03/02 11:47:03;;;;;;;14.70;10.83;;;11.20;99.90;;;;;;5007268;28;20602;-39
2022/03/02 11:49:49;;;;;;;18.50;12.20;;;11.30;99.90;;;;;;5020143;28;20204;-37
2022/03/02 11:52:20;;;;;;;16.97;12.07;;;11.40;99.90;;;;;;5009090;28;20237;-38
2022/03/02 11:55:18;;;;;;;17.97;13.10;;;11.40;99.90;;;;;;5016094;28;20237;-39
2022/03/02 11:57:52;;;;;;;19.90;13.77;;;11.50;99.90;;;;;;5016092;28;20270;-40
2022/03/02 12:00:24;;;;;;;21.97;13.57;;;11.50;99.90;;;;;;5013677;28;20204;-38
2022/03/02 12:02:59;;;;;;;21.10;13.87;;;11.50;99.90;;;;;;5022622;28;20647;-40
2022/03/02 12:05:32;;;;;;;19.80;13.43;;;11.60;99.90;;;;;;5003509;28;20622;-38
2022/03/02 12:08:07;;;;;;;17.07;13.13;;;11.60;99.90;;;;;;5013841;28;20629;-38
2022/03/02 12:10:37;;;;;;;18.90;13.13;;;11.60;99.90;;;;;;4997282;28;20409;-38
2022/03/02 12:13:05;;;;;;;18.10;12.80;;;11.60;99.90;;;;;;5026774;28;20208;-38
2022/03/02 12:15:55;;;;;;;20.73;13.27;;;11.60;99.90;;;;;;4996625;28;20230;-37
2022/03/02 12:18:25;;;;;;;18.47;12.33;;;11.70;99.90;;;;;;5015566;28;20626;-37
2022/03/02 12:20:59;;;;;;;19.97;13.43;;;11.70;99.90;;;;;;5015192;28;20212;-37
2022/03/02 12:23:29;;;;;;;21.27;14.97;;;11.70;99.90;;;;;;5021389;28;20221;-37
2022/03/02 12:25:59;;;;;;;21.30;15.07;;;11.60;99.90;;;;;;5001823;28;20201;-37
2022/03/02 12:28:29;;;;;;;19.57;14.00;;;11.70;99.90;;;;;;5015041;28;20200;-37
2022/03/02 12:31:01;;;;;;;19.70;13.23;;;11.70;99.90;;;;;;4997666;28;20244;-37
2022/03/02 12:33:31;;;;;;;20.73;13.57;;;11.70;99.90;;;;;;5011388;28;20573;-37
2022/03/02 12:36:21;;;;;;;19.47;13.93;;;11.70;99.90;;;;;;5009076;28;20194;-37
2022/03/02 12:39:10;;;;;;;21.33;13.80;;;11.80;99.90;;;;;;5018297;28;20597;-38
2022/03/02 12:41:40;;;;;;;19.63;14.70;;;11.80;99.90;;;;;;5025907;28;20213;-38
2022/03/02 12:44:10;;;;;;;21.53;14.70;;;11.80;99.90;;;;;;5025208;28;20213;-38
2022/03/02 12:46:40;;;;;;;18.90;14.00;;;11.80;99.90;;;;;;5008715;28;20651;-38
2022/03/02 12:49:11;;;;;;;19.83;12.63;;;11.80;99.90;;;;;;5019366;28;20209;-38
2022/03/02 12:51:40;;;;;;;17.73;12.27;;;11.80;99.90;;;;;;5022933;28;20554;-39
2022/03/02 12:54:10;;;;;;;23.73;12.87;;;11.80;99.90;;;;;;5013436;28;20209;-40